sensor_id;sensor_type;location;lat;lon;timestamp;P1;durP1;ratioP1;P2;durP2;ratioP2
61911;SDS011;49973;52.084;5.412;2023-07-20T00:00:46;10.70;;;4.17;;
61911;SDS011;49973;52.084;5.412;2023-07-20T00:03:14;5.47;;;3.10;;
61911;SDS011;49973;52.084;5.412;2023-07-20T00:05:46;5.63;;;3.53;;
61911;SDS011;49973;52.084;5.412;2023-07-20T00:08:15;8.40;;;4.00;;
61911;SDS011;49973;52.084;5.412;2023-07-20T00:10:45;4.43;;;3.47;;
61911;SDS011;49973;52.084;5.412;2023-07-20T00:13:14;7.87;;;4.43;;
61911;SDS011;49973;52.084;5.412;2023-07-20T00:15:45;5.67;;;3.50;;
61911;SDS011;49973;52.084;5.412;2023-07-20T00:18:14;4.50;;;3.77;;
61911;SDS011;49973;52.084;5.412;2023-07-20T00:20:42;5.57;;;3.20;;
61911;SDS011;49973;52.084;5.412;2023-07-20T00:23:11;5.07;;;3.17;;
61911;SDS011;49973;52.084;5.412;2023-07-20T00:25:40;6.47;;;3.30;;
61911;SDS011;49973;52.084;5.412;2023-07-20T00:28:10;7.40;;;3.50;;
61911;SDS011;49973;52.084;5.412;2023-07-20T00:30:38;5.33;;;2.37;;
61911;SDS011;49973;52.084;5.412;2023-07-20T00:33:10;2.47;;;2.20;;
61911;SDS011;49973;52.084;5.412;2023-07-20T00:35:39;4.17;;;2.53;;
61911;SDS011;49973;52.084;5.412;2023-07-20T00:38:08;1.90;;;1.70;;
61911;SDS011;49973;52.084;5.412;2023-07-20T00:40:37;2.63;;;1.90;;
61911;SDS011;49973;52.084;5.412;2023-07-20T00:43:05;3.93;;;1.93;;
61911;SDS011;49973;52.084;5.412;2023-07-20T00:45:36;2.40;;;1.60;;
61911;SDS011;49973;52.084;5.412;2023-07-20T00:48:05;1.83;;;1.47;;
61911;SDS011;49973;52.084;5.412;2023-07-20T00:50:35;2.30;;;1.77;;
61911;SDS011;49973;52.084;5.412;2023-07-20T00:53:04;4.10;;;2.10;;
61911;SDS011;49973;52.084;5.412;2023-07-20T00:55:34;2.40;;;1.80;;
61911;SDS011;49973;52.084;5.412;2023-07-20T00:58:02;3.00;;;1.63;;
61911;SDS011;49973;52.084;5.412;2023-07-20T01:00:35;1.97;;;1.40;;
61911;SDS011;49973;52.084;5.412;2023-07-20T01:03:04;4.07;;;1.70;;
61911;SDS011;49973;52.084;5.412;2023-07-20T01:05:36;2.17;;;1.90;;
61911;SDS011;49973;52.084;5.412;2023-07-20T01:08:11;1.63;;;1.33;;
61911;SDS011;49973;52.084;5.412;2023-07-20T01:10:45;2.87;;;1.77;;
61911;SDS011;49973;52.084;5.412;2023-07-20T01:13:18;3.53;;;1.73;;
61911;SDS011;49973;52.084;5.412;2023-07-20T01:15:56;2.57;;;1.80;;
61911;SDS011;49973;52.084;5.412;2023-07-20T01:18:26;2.73;;;1.60;;
61911;SDS011;49973;52.084;5.412;2023-07-20T01:20:56;1.90;;;1.40;;
61911;SDS011;49973;52.084;5.412;2023-07-20T01:23:34;2.10;;;1.50;;
61911;SDS011;49973;52.084;5.412;2023-07-20T01:26:37;3.50;;;1.33;;
61911;SDS011;49973;52.084;5.412;2023-07-20T01:29:22;2.13;;;1.40;;
61911;SDS011;49973;52.084;5.412;2023-07-20T01:32:03;3.10;;;1.80;;
61911;SDS011;49973;52.084;5.412;2023-07-20T01:34:35;3.77;;;1.67;;
61911;SDS011;49973;52.084;5.412;2023-07-20T01:37:04;2.60;;;1.80;;
61911;SDS011;49973;52.084;5.412;2023-07-20T01:39:34;2.37;;;1.43;;
61911;SDS011;49973;52.084;5.412;2023-07-20T01:42:04;2.30;;;1.80;;
61911;SDS011;49973;52.084;5.412;2023-07-20T01:44:33;1.70;;;1.60;;
61911;SDS011;49973;52.084;5.412;2023-07-20T01:47:03;3.43;;;2.10;;
61911;SDS011;49973;52.084;5.412;2023-07-20T01:49:32;2.20;;;1.60;;
61911;SDS011;49973;52.084;5.412;2023-07-20T01:52:01;2.73;;;2.30;;
61911;SDS011;49973;52.084;5.412;2023-07-20T01:54:30;3.70;;;1.80;;
61911;SDS011;49973;52.084;5.412;2023-07-20T01:56:58;2.13;;;1.90;;
61911;SDS011;49973;52.084;5.412;2023-07-20T01:59:27;3.60;;;1.90;;
61911;SDS011;49973;52.084;5.412;2023-07-20T02:01:55;4.90;;;2.20;;
61911;SDS011;49973;52.084;5.412;2023-07-20T02:04:26;2.60;;;1.80;;
61911;SDS011;49973;52.084;5.412;2023-07-20T02:06:54;2.73;;;1.80;;
61911;SDS011;49973;52.084;5.412;2023-07-20T02:09:23;1.97;;;1.50;;
61911;SDS011;49973;52.084;5.412;2023-07-20T02:11:51;2.80;;;2.03;;
61911;SDS011;49973;52.084;5.412;2023-07-20T02:14:20;2.07;;;1.77;;
61911;SDS011;49973;52.084;5.412;2023-07-20T02:16:49;2.77;;;1.87;;
61911;SDS011;49973;52.084;5.412;2023-07-20T02:19:20;2.50;;;1.63;;
61911;SDS011;49973;52.084;5.412;2023-07-20T02:21:50;1.53;;;1.30;;
61911;SDS011;49973;52.084;5.412;2023-07-20T02:24:19;2.17;;;1.63;;
61911;SDS011;49973;52.084;5.412;2023-07-20T02:26:48;1.90;;;1.70;;
61911;SDS011;49973;52.084;5.412;2023-07-20T02:29:16;2.17;;;1.50;;
61911;SDS011;49973;52.084;5.412;2023-07-20T02:31:45;1.90;;;1.70;;
61911;SDS011;49973;52.084;5.412;2023-07-20T02:34:13;1.70;;;1.60;;
61911;SDS011;49973;52.084;5.412;2023-07-20T02:36:42;2.07;;;1.63;;
61911;SDS011;49973;52.084;5.412;2023-07-20T02:39:12;2.00;;;1.67;;
61911;SDS011;49973;52.084;5.412;2023-07-20T02:41:40;9.30;;;2.00;;
61911;SDS011;49973;52.084;5.412;2023-07-20T02:44:09;2.00;;;1.70;;
61911;SDS011;49973;52.084;5.412;2023-07-20T02:46:38;3.57;;;2.00;;
61911;SDS011;49973;52.084;5.412;2023-07-20T02:49:06;1.97;;;1.50;;
61911;SDS011;49973;52.084;5.412;2023-07-20T02:51:35;3.23;;;2.00;;
61911;SDS011;49973;52.084;5.412;2023-07-20T02:54:04;1.73;;;1.63;;
61911;SDS011;49973;52.084;5.412;2023-07-20T02:56:34;2.23;;;1.93;;
61911;SDS011;49973;52.084;5.412;2023-07-20T02:59:02;2.73;;;2.00;;
61911;SDS011;49973;52.084;5.412;2023-07-20T03:01:32;3.10;;;2.20;;
61911;SDS011;49973;52.084;5.412;2023-07-20T03:04:00;3.60;;;2.57;;
61911;SDS011;49973;52.084;5.412;2023-07-20T03:06:29;4.57;;;3.13;;
61911;SDS011;49973;52.084;5.412;2023-07-20T03:08:58;3.30;;;2.83;;
61911;SDS011;49973;52.084;5.412;2023-07-20T03:11:27;5.77;;;2.70;;
61911;SDS011;49973;52.084;5.412;2023-07-20T03:13:58;2.27;;;1.73;;
61911;SDS011;49973;52.084;5.412;2023-07-20T03:16:27;2.07;;;1.83;;
61911;SDS011;49973;52.084;5.412;2023-07-20T03:19:00;7.03;;;2.13;;
61911;SDS011;49973;52.084;5.412;2023-07-20T03:21:30;2.93;;;2.10;;
61911;SDS011;49973;52.084;5.412;2023-07-20T03:23:59;2.80;;;2.00;;
61911;SDS011;49973;52.084;5.412;2023-07-20T03:26:27;2.63;;;1.80;;
61911;SDS011;49973;52.084;5.412;2023-07-20T03:28:58;3.67;;;2.10;;
61911;SDS011;49973;52.084;5.412;2023-07-20T03:31:27;3.00;;;2.17;;
61911;SDS011;49973;52.084;5.412;2023-07-20T03:33:56;3.30;;;2.13;;
61911;SDS011;49973;52.084;5.412;2023-07-20T03:36:24;3.13;;;2.07;;
61911;SDS011;49973;52.084;5.412;2023-07-20T03:38:53;2.77;;;1.70;;
61911;SDS011;49973;52.084;5.412;2023-07-20T03:41:22;3.03;;;1.57;;
61911;SDS011;49973;52.084;5.412;2023-07-20T03:43:50;2.40;;;2.20;;
61911;SDS011;49973;52.084;5.412;2023-07-20T03:46:20;2.50;;;2.13;;
61911;SDS011;49973;52.084;5.412;2023-07-20T03:48:49;2.53;;;1.80;;
61911;SDS011;49973;52.084;5.412;2023-07-20T03:51:18;2.50;;;2.13;;
61911;SDS011;49973;52.084;5.412;2023-07-20T03:53:47;3.33;;;2.33;;
61911;SDS011;49973;52.084;5.412;2023-07-20T03:56:15;3.47;;;2.50;;
61911;SDS011;49973;52.084;5.412;2023-07-20T03:58:44;2.27;;;1.87;;
61911;SDS011;49973;52.084;5.412;2023-07-20T04:01:13;2.93;;;2.07;;
61911;SDS011;49973;52.084;5.412;2023-07-20T04:03:44;4.60;;;3.00;;
61911;SDS011;49973;52.084;5.412;2023-07-20T04:06:16;3.53;;;2.27;;
61911;SDS011;49973;52.084;5.412;2023-07-20T04:08:45;2.80;;;2.00;;
61911;SDS011;49973;52.084;5.412;2023-07-20T04:11:14;5.87;;;2.47;;
61911;SDS011;49973;52.084;5.412;2023-07-20T04:13:43;3.80;;;2.37;;
61911;SDS011;49973;52.084;5.412;2023-07-20T04:16:11;2.73;;;2.53;;
61911;SDS011;49973;52.084;5.412;2023-07-20T04:18:40;2.83;;;2.40;;
61911;SDS011;49973;52.084;5.412;2023-07-20T04:21:10;3.37;;;2.43;;
61911;SDS011;49973;52.084;5.412;2023-07-20T04:23:38;4.80;;;2.47;;
61911;SDS011;49973;52.084;5.412;2023-07-20T04:26:07;6.30;;;2.70;;
61911;SDS011;49973;52.084;5.412;2023-07-20T04:28:36;4.50;;;2.50;;
61911;SDS011;49973;52.084;5.412;2023-07-20T04:31:11;3.17;;;2.47;;
61911;SDS011;49973;52.084;5.412;2023-07-20T04:33:42;3.10;;;2.47;;
61911;SDS011;49973;52.084;5.412;2023-07-20T04:36:12;4.23;;;2.70;;
61911;SDS011;49973;52.084;5.412;2023-07-20T04:38:43;2.67;;;2.40;;
61911;SDS011;49973;52.084;5.412;2023-07-20T04:41:18;2.93;;;2.37;;
61911;SDS011;49973;52.084;5.412;2023-07-20T04:43:49;2.20;;;2.00;;
61911;SDS011;49973;52.084;5.412;2023-07-20T04:46:24;3.80;;;3.00;;
61911;SDS011;49973;52.084;5.412;2023-07-20T04:48:54;4.03;;;2.73;;
61911;SDS011;49973;52.084;5.412;2023-07-20T04:51:25;3.53;;;2.67;;
61911;SDS011;49973;52.084;5.412;2023-07-20T04:53:56;4.80;;;2.87;;
61911;SDS011;49973;52.084;5.412;2023-07-20T04:56:28;6.13;;;2.50;;
61911;SDS011;49973;52.084;5.412;2023-07-20T04:58:57;3.10;;;2.53;;
61911;SDS011;49973;52.084;5.412;2023-07-20T05:01:26;7.03;;;3.00;;
61911;SDS011;49973;52.084;5.412;2023-07-20T05:03:55;5.23;;;3.60;;
61911;SDS011;49973;52.084;5.412;2023-07-20T05:06:26;4.07;;;3.17;;
61911;SDS011;49973;52.084;5.412;2023-07-20T05:08:55;4.27;;;3.47;;
61911;SDS011;49973;52.084;5.412;2023-07-20T05:11:23;4.10;;;3.10;;
61911;SDS011;49973;52.084;5.412;2023-07-20T05:13:52;3.77;;;3.07;;
61911;SDS011;49973;52.084;5.412;2023-07-20T05:16:20;8.20;;;3.13;;
61911;SDS011;49973;52.084;5.412;2023-07-20T05:18:50;3.40;;;3.10;;
61911;SDS011;49973;52.084;5.412;2023-07-20T05:21:19;10.27;;;3.37;;
61911;SDS011;49973;52.084;5.412;2023-07-20T05:23:49;5.03;;;2.97;;
61911;SDS011;49973;52.084;5.412;2023-07-20T05:26:18;9.13;;;3.17;;
61911;SDS011;49973;52.084;5.412;2023-07-20T05:28:47;5.43;;;3.27;;
61911;SDS011;49973;52.084;5.412;2023-07-20T05:31:15;3.97;;;3.30;;
61911;SDS011;49973;52.084;5.412;2023-07-20T05:33:44;4.40;;;2.60;;
61911;SDS011;49973;52.084;5.412;2023-07-20T05:36:13;3.33;;;2.80;;
61911;SDS011;49973;52.084;5.412;2023-07-20T05:38:42;3.20;;;2.30;;
61911;SDS011;49973;52.084;5.412;2023-07-20T05:41:12;3.33;;;2.63;;
61911;SDS011;49973;52.084;5.412;2023-07-20T05:43:40;3.83;;;2.67;;
61911;SDS011;49973;52.084;5.412;2023-07-20T05:46:09;4.37;;;2.53;;
61911;SDS011;49973;52.084;5.412;2023-07-20T05:48:37;3.67;;;2.07;;
61911;SDS011;49973;52.084;5.412;2023-07-20T05:51:06;2.97;;;1.83;;
61911;SDS011;49973;52.084;5.412;2023-07-20T05:53:35;5.80;;;2.27;;
61911;SDS011;49973;52.084;5.412;2023-07-20T05:56:04;4.73;;;2.50;;
61911;SDS011;49973;52.084;5.412;2023-07-20T05:58:38;3.43;;;2.00;;
61911;SDS011;49973;52.084;5.412;2023-07-20T06:01:06;3.20;;;2.03;;
61911;SDS011;49973;52.084;5.412;2023-07-20T06:03:35;1.80;;;1.70;;
61911;SDS011;49973;52.084;5.412;2023-07-20T06:06:04;2.60;;;1.97;;
61911;SDS011;49973;52.084;5.412;2023-07-20T06:08:33;2.30;;;2.10;;
61911;SDS011;49973;52.084;5.412;2023-07-20T06:11:02;6.43;;;2.00;;
61911;SDS011;49973;52.084;5.412;2023-07-20T06:13:30;1.87;;;1.70;;
61911;SDS011;49973;52.084;5.412;2023-07-20T06:16:00;2.60;;;1.80;;
61911;SDS011;49973;52.084;5.412;2023-07-20T06:18:30;2.53;;;1.40;;
61911;SDS011;49973;52.084;5.412;2023-07-20T06:20:58;4.17;;;1.67;;
61911;SDS011;49973;52.084;5.412;2023-07-20T06:23:27;3.83;;;1.87;;
61911;SDS011;49973;52.084;5.412;2023-07-20T06:25:56;2.67;;;1.63;;
61911;SDS011;49973;52.084;5.412;2023-07-20T06:28:24;5.17;;;1.70;;
61911;SDS011;49973;52.084;5.412;2023-07-20T06:30:58;1.93;;;1.13;;
61911;SDS011;49973;52.084;5.412;2023-07-20T06:33:29;3.23;;;1.50;;
61911;SDS011;49973;52.084;5.412;2023-07-20T06:35:58;2.07;;;1.60;;
61911;SDS011;49973;52.084;5.412;2023-07-20T06:38:26;2.70;;;1.57;;
61911;SDS011;49973;52.084;5.412;2023-07-20T06:40:58;1.37;;;1.27;;
61911;SDS011;49973;52.084;5.412;2023-07-20T06:43:30;1.90;;;1.00;;
61911;SDS011;49973;52.084;5.412;2023-07-20T06:46:02;2.70;;;1.20;;
61911;SDS011;49973;52.084;5.412;2023-07-20T06:48:31;1.30;;;1.07;;
61911;SDS011;49973;52.084;5.412;2023-07-20T06:51:20;1.80;;;0.70;;
61911;SDS011;49973;52.084;5.412;2023-07-20T06:53:49;1.57;;;1.00;;
61911;SDS011;49973;52.084;5.412;2023-07-20T06:56:18;0.93;;;0.70;;
61911;SDS011;49973;52.084;5.412;2023-07-20T06:58:50;1.27;;;1.17;;
61911;SDS011;49973;52.084;5.412;2023-07-20T07:01:20;1.50;;;0.93;;
61911;SDS011;49973;52.084;5.412;2023-07-20T07:03:50;1.60;;;0.70;;
61911;SDS011;49973;52.084;5.412;2023-07-20T07:06:22;0.83;;;0.80;;
61911;SDS011;49973;52.084;5.412;2023-07-20T07:08:52;3.03;;;1.13;;
61911;SDS011;49973;52.084;5.412;2023-07-20T07:11:21;3.53;;;0.90;;
61911;SDS011;49973;52.084;5.412;2023-07-20T07:13:50;2.67;;;0.90;;
61911;SDS011;49973;52.084;5.412;2023-07-20T07:16:24;0.60;;;0.60;;
61911;SDS011;49973;52.084;5.412;2023-07-20T07:18:53;1.03;;;0.73;;
61911;SDS011;49973;52.084;5.412;2023-07-20T07:21:26;3.13;;;0.80;;
61911;SDS011;49973;52.084;5.412;2023-07-20T07:23:54;1.90;;;0.67;;
61911;SDS011;49973;52.084;5.412;2023-07-20T07:26:24;1.23;;;0.70;;
61911;SDS011;49973;52.084;5.412;2023-07-20T07:28:53;1.80;;;0.77;;
61911;SDS011;49973;52.084;5.412;2023-07-20T07:31:24;2.90;;;0.60;;
61911;SDS011;49973;52.084;5.412;2023-07-20T07:33:53;2.87;;;0.83;;
61911;SDS011;49973;52.084;5.412;2023-07-20T07:36:22;0.47;;;0.47;;
61911;SDS011;49973;52.084;5.412;2023-07-20T07:38:51;2.50;;;0.73;;
61911;SDS011;49973;52.084;5.412;2023-07-20T07:41:22;2.83;;;0.87;;
61911;SDS011;49973;52.084;5.412;2023-07-20T07:43:51;0.67;;;0.60;;
61911;SDS011;49973;52.084;5.412;2023-07-20T07:46:19;0.90;;;0.57;;
61911;SDS011;49973;52.084;5.412;2023-07-20T07:48:50;0.80;;;0.50;;
61911;SDS011;49973;52.084;5.412;2023-07-20T07:51:19;1.03;;;0.87;;
61911;SDS011;49973;52.084;5.412;2023-07-20T07:53:47;0.70;;;0.70;;
61911;SDS011;49973;52.084;5.412;2023-07-20T07:56:17;2.13;;;0.60;;
61911;SDS011;49973;52.084;5.412;2023-07-20T07:58:50;0.40;;;0.40;;
61911;SDS011;49973;52.084;5.412;2023-07-20T08:01:19;1.27;;;0.70;;
61911;SDS011;49973;52.084;5.412;2023-07-20T08:03:50;0.50;;;0.50;;
61911;SDS011;49973;52.084;5.412;2023-07-20T08:06:18;2.30;;;0.80;;
61911;SDS011;49973;52.084;5.412;2023-07-20T08:08:47;1.47;;;0.73;;
61911;SDS011;49973;52.084;5.412;2023-07-20T08:11:16;1.37;;;0.50;;
61911;SDS011;49973;52.084;5.412;2023-07-20T08:13:45;0.60;;;0.60;;
61911;SDS011;49973;52.084;5.412;2023-07-20T08:16:14;0.40;;;0.40;;
61911;SDS011;49973;52.084;5.412;2023-07-20T08:18:43;1.33;;;0.40;;
61911;SDS011;49973;52.084;5.412;2023-07-20T08:21:14;0.60;;;0.50;;
61911;SDS011;49973;52.084;5.412;2023-07-20T08:23:43;0.43;;;0.40;;
61911;SDS011;49973;52.084;5.412;2023-07-20T08:26:11;0.40;;;0.40;;
61911;SDS011;49973;52.084;5.412;2023-07-20T08:28:40;2.10;;;0.60;;
61911;SDS011;49973;52.084;5.412;2023-07-20T08:31:10;0.60;;;0.50;;
61911;SDS011;49973;52.084;5.412;2023-07-20T08:33:39;0.40;;;0.40;;
61911;SDS011;49973;52.084;5.412;2023-07-20T08:36:07;1.70;;;0.50;;
61911;SDS011;49973;52.084;5.412;2023-07-20T08:38:39;1.40;;;0.57;;
61911;SDS011;49973;52.084;5.412;2023-07-20T08:41:08;1.67;;;0.60;;
61911;SDS011;49973;52.084;5.412;2023-07-20T08:43:37;5.43;;;0.60;;
61911;SDS011;49973;52.084;5.412;2023-07-20T08:46:10;0.93;;;0.40;;
61911;SDS011;49973;52.084;5.412;2023-07-20T08:48:42;1.57;;;0.60;;
61911;SDS011;49973;52.084;5.412;2023-07-20T08:51:12;2.43;;;0.50;;
61911;SDS011;49973;52.084;5.412;2023-07-20T08:53:43;1.17;;;0.70;;
61911;SDS011;49973;52.084;5.412;2023-07-20T08:56:13;2.30;;;0.50;;
61911;SDS011;49973;52.084;5.412;2023-07-20T08:58:43;0.60;;;0.40;;
61911;SDS011;49973;52.084;5.412;2023-07-20T09:01:12;2.93;;;0.43;;
61911;SDS011;49973;52.084;5.412;2023-07-20T09:03:42;0.93;;;0.50;;
61911;SDS011;49973;52.084;5.412;2023-07-20T09:06:13;0.43;;;0.40;;
61911;SDS011;49973;52.084;5.412;2023-07-20T09:08:44;0.47;;;0.40;;
61911;SDS011;49973;52.084;5.412;2023-07-20T09:11:12;0.70;;;0.30;;
61911;SDS011;49973;52.084;5.412;2023-07-20T09:13:42;0.40;;;0.40;;
61911;SDS011;49973;52.084;5.412;2023-07-20T09:16:12;0.30;;;0.30;;
61911;SDS011;49973;52.084;5.412;2023-07-20T09:18:42;0.67;;;0.30;;
61911;SDS011;49973;52.084;5.412;2023-07-20T09:21:11;0.67;;;0.40;;
61911;SDS011;49973;52.084;5.412;2023-07-20T09:23:39;0.40;;;0.37;;
61911;SDS011;49973;52.084;5.412;2023-07-20T09:26:13;2.20;;;0.40;;
61911;SDS011;49973;52.084;5.412;2023-07-20T09:28:42;0.60;;;0.57;;
61911;SDS011;49973;52.084;5.412;2023-07-20T09:31:17;1.47;;;0.50;;
61911;SDS011;49973;52.084;5.412;2023-07-20T09:33:48;0.30;;;0.30;;
61911;SDS011;49973;52.084;5.412;2023-07-20T09:36:20;0.20;;;0.20;;
61911;SDS011;49973;52.084;5.412;2023-07-20T09:39:08;0.30;;;0.30;;
61911;SDS011;49973;52.084;5.412;2023-07-20T09:41:41;0.43;;;0.40;;
61911;SDS011;49973;52.084;5.412;2023-07-20T09:44:13;0.50;;;0.50;;
61911;SDS011;49973;52.084;5.412;2023-07-20T09:46:45;0.80;;;0.20;;
61911;SDS011;49973;52.084;5.412;2023-07-20T09:49:18;1.90;;;0.40;;
61911;SDS011;49973;52.084;5.412;2023-07-20T09:51:50;0.33;;;0.33;;
61911;SDS011;49973;52.084;5.412;2023-07-20T09:54:21;0.40;;;0.40;;
61911;SDS011;49973;52.084;5.412;2023-07-20T09:56:52;0.52;;;0.50;;
61911;SDS011;49973;52.084;5.412;2023-07-20T09:59:21;0.40;;;0.30;;
61911;SDS011;49973;52.084;5.412;2023-07-20T10:01:50;0.30;;;0.30;;
61911;SDS011;49973;52.084;5.412;2023-07-20T10:04:24;0.30;;;0.30;;
61911;SDS011;49973;52.084;5.412;2023-07-20T10:06:56;1.17;;;0.47;;
61911;SDS011;49973;52.084;5.412;2023-07-20T10:09:29;0.30;;;0.30;;
61911;SDS011;49973;52.084;5.412;2023-07-20T10:12:01;0.60;;;0.60;;
61911;SDS011;49973;52.084;5.412;2023-07-20T10:14:44;1.35;;;0.20;;
61911;SDS011;49973;52.084;5.412;2023-07-20T10:17:20;0.40;;;0.40;;
61911;SDS011;49973;52.084;5.412;2023-07-20T10:19:51;1.65;;;0.55;;
61911;SDS011;49973;52.084;5.412;2023-07-20T10:22:24;0.32;;;0.20;;
61911;SDS011;49973;52.084;5.412;2023-07-20T10:24:54;0.30;;;0.30;;
61911;SDS011;49973;52.084;5.412;2023-07-20T10:27:27;0.47;;;0.30;;
61911;SDS011;49973;52.084;5.412;2023-07-20T10:29:56;0.30;;;0.10;;
61911;SDS011;49973;52.084;5.412;2023-07-20T10:32:25;0.20;;;0.20;;
61911;SDS011;49973;52.084;5.412;2023-07-20T10:34:55;0.68;;;0.40;;
61911;SDS011;49973;52.084;5.412;2023-07-20T10:40:24;0.30;;;0.30;;
61911;SDS011;49973;52.084;5.412;2023-07-20T10:43:03;0.57;;;0.40;;
61911;SDS011;49973;52.084;5.412;2023-07-20T10:45:34;0.20;;;0.20;;
61911;SDS011;49973;52.084;5.412;2023-07-20T10:48:04;0.30;;;0.30;;
61911;SDS011;49973;52.084;5.412;2023-07-20T10:50:33;0.40;;;0.20;;
61911;SDS011;49973;52.084;5.412;2023-07-20T10:53:09;1.10;;;0.30;;
61911;SDS011;49973;52.084;5.412;2023-07-20T10:55:39;0.30;;;0.30;;
61911;SDS011;49973;52.084;5.412;2023-07-20T10:58:11;0.55;;;0.38;;
61911;SDS011;49973;52.084;5.412;2023-07-20T11:03:26;2.17;;;0.35;;
61911;SDS011;49973;52.084;5.412;2023-07-20T11:09:10;2.08;;;0.40;;
61911;SDS011;49973;52.084;5.412;2023-07-20T11:11:41;1.15;;;0.28;;
61911;SDS011;49973;52.084;5.412;2023-07-20T11:14:19;0.25;;;0.20;;
61911;SDS011;49973;52.084;5.412;2023-07-20T11:16:49;0.63;;;0.43;;
61911;SDS011;49973;52.084;5.412;2023-07-20T11:19:19;5.38;;;0.30;;
61911;SDS011;49973;52.084;5.412;2023-07-20T11:21:53;0.30;;;0.30;;
61911;SDS011;49973;52.084;5.412;2023-07-20T11:24:30;0.30;;;0.30;;
61911;SDS011;49973;52.084;5.412;2023-07-20T11:27:00;0.32;;;0.20;;
61911;SDS011;49973;52.084;5.412;2023-07-20T11:29:30;0.38;;;0.32;;
61911;SDS011;49973;52.084;5.412;2023-07-20T11:32:00;0.35;;;0.30;;
61911;SDS011;49973;52.084;5.412;2023-07-20T11:34:32;0.52;;;0.28;;
61911;SDS011;49973;52.084;5.412;2023-07-20T11:37:02;0.20;;;0.20;;
61911;SDS011;49973;52.084;5.412;2023-07-20T11:39:34;5.18;;;0.32;;
61911;SDS011;49973;52.084;5.412;2023-07-20T11:42:03;0.55;;;0.40;;
61911;SDS011;49973;52.084;5.412;2023-07-20T11:44:34;0.77;;;0.50;;
61911;SDS011;49973;52.084;5.412;2023-07-20T11:47:03;0.40;;;0.38;;
61911;SDS011;49973;52.084;5.412;2023-07-20T11:49:36;0.30;;;0.30;;
61911;SDS011;49973;52.084;5.412;2023-07-20T11:52:06;4.63;;;0.50;;
61911;SDS011;49973;52.084;5.412;2023-07-20T11:54:36;0.50;;;0.47;;
61911;SDS011;49973;52.084;5.412;2023-07-20T11:57:15;0.63;;;0.40;;
61911;SDS011;49973;52.084;5.412;2023-07-20T11:59:53;0.38;;;0.38;;
61911;SDS011;49973;52.084;5.412;2023-07-20T12:02:26;2.53;;;0.73;;
61911;SDS011;49973;52.084;5.412;2023-07-20T12:04:56;0.77;;;0.50;;
61911;SDS011;49973;52.084;5.412;2023-07-20T12:07:26;0.40;;;0.40;;
61911;SDS011;49973;52.084;5.412;2023-07-20T12:10:02;0.40;;;0.30;;
61911;SDS011;49973;52.084;5.412;2023-07-20T12:12:32;0.40;;;0.40;;
61911;SDS011;49973;52.084;5.412;2023-07-20T12:15:15;2.10;;;0.40;;
61911;SDS011;49973;52.084;5.412;2023-07-20T12:17:44;1.53;;;0.40;;
61911;SDS011;49973;52.084;5.412;2023-07-20T12:20:13;1.33;;;0.50;;
61911;SDS011;49973;52.084;5.412;2023-07-20T12:22:55;0.77;;;0.50;;
61911;SDS011;49973;52.084;5.412;2023-07-20T12:25:32;0.45;;;0.40;;
61911;SDS011;49973;52.084;5.412;2023-07-20T12:28:01;0.50;;;0.50;;
61911;SDS011;49973;52.084;5.412;2023-07-20T12:30:33;0.43;;;0.43;;
61911;SDS011;49973;52.084;5.412;2023-07-20T12:33:03;1.63;;;0.60;;
61911;SDS011;49973;52.084;5.412;2023-07-20T12:35:32;0.30;;;0.30;;
61911;SDS011;49973;52.084;5.412;2023-07-20T12:38:01;0.47;;;0.30;;
61911;SDS011;49973;52.084;5.412;2023-07-20T12:40:30;1.05;;;0.65;;
61911;SDS011;49973;52.084;5.412;2023-07-20T12:42:58;0.35;;;0.35;;
61911;SDS011;49973;52.084;5.412;2023-07-20T12:45:27;3.72;;;0.45;;
61911;SDS011;49973;52.084;5.412;2023-07-20T12:47:57;0.52;;;0.52;;
61911;SDS011;49973;52.084;5.412;2023-07-20T12:50:26;0.97;;;0.43;;
61911;SDS011;49973;52.084;5.412;2023-07-20T12:52:55;3.78;;;0.70;;
61911;SDS011;49973;52.084;5.412;2023-07-20T12:55:23;0.60;;;0.47;;
61911;SDS011;49973;52.084;5.412;2023-07-20T12:57:52;0.50;;;0.50;;
61911;SDS011;49973;52.084;5.412;2023-07-20T13:00:21;1.27;;;0.33;;
61911;SDS011;49973;52.084;5.412;2023-07-20T13:02:50;1.17;;;0.57;;
61911;SDS011;49973;52.084;5.412;2023-07-20T13:05:36;0.70;;;0.70;;
61911;SDS011;49973;52.084;5.412;2023-07-20T13:08:08;0.77;;;0.63;;
61911;SDS011;49973;52.084;5.412;2023-07-20T13:10:40;0.57;;;0.57;;
61911;SDS011;49973;52.084;5.412;2023-07-20T13:13:09;0.60;;;0.57;;
61911;SDS011;49973;52.084;5.412;2023-07-20T13:15:41;1.80;;;0.60;;
61911;SDS011;49973;52.084;5.412;2023-07-20T13:18:11;0.77;;;0.70;;
61911;SDS011;49973;52.084;5.412;2023-07-20T13:20:41;0.70;;;0.50;;
61911;SDS011;49973;52.084;5.412;2023-07-20T13:23:09;1.17;;;0.70;;
61911;SDS011;49973;52.084;5.412;2023-07-20T13:25:38;1.47;;;0.80;;
61911;SDS011;49973;52.084;5.412;2023-07-20T13:28:07;0.60;;;0.60;;
61911;SDS011;49973;52.084;5.412;2023-07-20T13:30:36;0.40;;;0.40;;
61911;SDS011;49973;52.084;5.412;2023-07-20T13:33:07;4.20;;;1.90;;
61911;SDS011;49973;52.084;5.412;2023-07-20T13:35:40;1.80;;;1.23;;
61911;SDS011;49973;52.084;5.412;2023-07-20T13:38:12;0.97;;;0.90;;
61911;SDS011;49973;52.084;5.412;2023-07-20T13:40:41;0.93;;;0.80;;
61911;SDS011;49973;52.084;5.412;2023-07-20T13:43:10;0.67;;;0.60;;
61911;SDS011;49973;52.084;5.412;2023-07-20T13:45:39;3.67;;;0.83;;
61911;SDS011;49973;52.084;5.412;2023-07-20T13:48:07;0.63;;;0.50;;
61911;SDS011;49973;52.084;5.412;2023-07-20T13:50:36;0.50;;;0.50;;
61911;SDS011;49973;52.084;5.412;2023-07-20T13:53:09;0.60;;;0.53;;
61911;SDS011;49973;52.084;5.412;2023-07-20T13:55:41;0.57;;;0.57;;
61911;SDS011;49973;52.084;5.412;2023-07-20T13:58:13;0.67;;;0.60;;
61911;SDS011;49973;52.084;5.412;2023-07-20T14:00:41;1.77;;;0.77;;
61911;SDS011;49973;52.084;5.412;2023-07-20T14:03:10;0.70;;;0.60;;
61911;SDS011;49973;52.084;5.412;2023-07-20T14:05:41;1.60;;;0.43;;
61911;SDS011;49973;52.084;5.412;2023-07-20T14:08:15;3.90;;;0.80;;
61911;SDS011;49973;52.084;5.412;2023-07-20T14:10:44;1.27;;;0.57;;
61911;SDS011;49973;52.084;5.412;2023-07-20T14:13:16;0.60;;;0.50;;
61911;SDS011;49973;52.084;5.412;2023-07-20T14:15:44;0.83;;;0.70;;
61911;SDS011;49973;52.084;5.412;2023-07-20T14:18:13;0.60;;;0.50;;
61911;SDS011;49973;52.084;5.412;2023-07-20T14:20:45;1.70;;;0.60;;
61911;SDS011;49973;52.084;5.412;2023-07-20T14:23:15;0.70;;;0.70;;
61911;SDS011;49973;52.084;5.412;2023-07-20T14:25:44;0.50;;;0.50;;
61911;SDS011;49973;52.084;5.412;2023-07-20T14:28:15;1.13;;;0.63;;
61911;SDS011;49973;52.084;5.412;2023-07-20T14:30:43;0.63;;;0.63;;
61911;SDS011;49973;52.084;5.412;2023-07-20T14:33:12;1.10;;;0.70;;
61911;SDS011;49973;52.084;5.412;2023-07-20T14:35:41;0.60;;;0.60;;
61911;SDS011;49973;52.084;5.412;2023-07-20T14:38:09;0.50;;;0.50;;
61911;SDS011;49973;52.084;5.412;2023-07-20T14:40:40;0.47;;;0.47;;
61911;SDS011;49973;52.084;5.412;2023-07-20T14:43:08;1.23;;;0.47;;
61911;SDS011;49973;52.084;5.412;2023-07-20T14:45:37;1.87;;;1.40;;
61911;SDS011;49973;52.084;5.412;2023-07-20T14:48:06;0.70;;;0.70;;
61911;SDS011;49973;52.084;5.412;2023-07-20T14:50:34;1.27;;;1.17;;
61911;SDS011;49973;52.084;5.412;2023-07-20T14:53:03;0.80;;;0.63;;
61911;SDS011;49973;52.084;5.412;2023-07-20T14:55:32;0.60;;;0.60;;
61911;SDS011;49973;52.084;5.412;2023-07-20T14:58:02;1.43;;;0.80;;
61911;SDS011;49973;52.084;5.412;2023-07-20T15:00:31;0.60;;;0.50;;
61911;SDS011;49973;52.084;5.412;2023-07-20T15:03:00;3.13;;;0.77;;
61911;SDS011;49973;52.084;5.412;2023-07-20T15:05:29;0.80;;;0.60;;
61911;SDS011;49973;52.084;5.412;2023-07-20T15:07:57;1.20;;;0.70;;
61911;SDS011;49973;52.084;5.412;2023-07-20T15:10:26;1.60;;;0.60;;
61911;SDS011;49973;52.084;5.412;2023-07-20T15:12:55;2.83;;;0.87;;
61911;SDS011;49973;52.084;5.412;2023-07-20T15:15:25;1.00;;;0.80;;